Meath Environmental Platform

Observations for Trim Patrick St

Time AQI Temp °C Hum % Pres Pa CO μg/m³ H₂S μg/m³ NO μg/m³ NO₂ μg/m³ O₃ μg/m³ SO₂ μg/m³ PM1 μg/m³ PM2.5 μg/m³ PM10 μg/m³
Friday 28 August 2026
06:22 3 16.2 89 38,459 0.19 1.29 3.14 3.52 33.58 0 12.29 17.58 19.34
06:21 3 16.2 89 38,459 0.19 1.16 3.15 7.7 30.78 0 13.14 18.95 20.84
06:20 3 16.2 89 38,459 0.19 1.79 3 28.86 17.65 0 12.29 16.9 18.59
06:19 3 16.2 89 38,459 0.22 2.05 2.86 100.03 0 0 14.86 20.31 22.34
06:18 3 16.2 89 38,459 0.19 2.31 2.41 2.68 31.96 0 11.43 18.27 20.09
06:17 3 16.2 89 38,459 0.19 1.81 2.38 2.36 37.29 0 12.29 19.64 21.6
06:16 3 16.2 89 38,459 0.19 1.81 2.38 2.19 38.76 0 11.43 17.6 19.35
06:15 3 16.2 89 38,459 0.19 2.18 2.38 2.46 34.55 0 10.57 17.58 19.34
06:14 3 16.2 89 38,459 0.18 2.34 2.36 2.83 35.41 0 12.29 18.27 20.09
06:13 3 16.2 89 38,459 0.2 1.48 2.37 1.88 37.84 0 14 19.63 21.59
06:12 3 16.1 89 38,459 0.21 2.52 2.39 3.05 32.59 0.22 10.57 16.9 18.59
06:11 3 16.2 89 38,459 0.2 2.21 2.4 2.92 31.4 0 11.43 16.22 17.84
06:10 3 16.2 89 38,459 0.21 2.13 2.4 3.05 33.89 0 11.43 16.9 18.59
06:09 3 16.2 89 38,459 0.21 2.02 2.38 3.05 34.14 0 14 19.63 21.59
06:08 3 16.2 89 38,459 0.18 2.73 2.4 2.53 35.53 0.35 11.43 18.27 20.09
06:07 3 16.2 89 38,459 0.2 2.21 2.41 2.46 33.83 0 12.29 16.22 17.84
06:06 3 16.2 89 38,459 0.2 2.65 2.41 2.76 34.71 0 12.29 19.63 21.59
06:05 3 16.2 89 38,459 0.2 2.08 2.41 2.47 36.21 0 11.43 18.96 20.85
06:04 3 16.1 89 38,459 0.21 2.42 2.46 2.7 37.04 0 13.14 17.6 19.35
06:03 3 16.1 89 38,459 0.21 2.91 2.46 4.16 33.56 0 8 15.55 17.11